Time;durP1;ratioP1;P1;durP2;ratioP2;P2;SDS_P1;SDS_P2;PMS_P1;PMS_P2;Temp;Humidity;BMP_temperature;BMP_pressure;BME280_temperature;BME280_humidity;BME280_pressure;Samples;Min_cycle;Max_cycle;Signal;HPM_P1;HPM_P2
2022/03/11 00:01:49;;;;;;;14.43;10.18;;;;;;;;;;5031500;28;20036;-64
2022/03/11 00:04:15;;;;;;;12.75;9.68;;;;;;;;;;5032349;28;20041;-64
2022/03/11 00:06:40;;;;;;;21.90;10.52;;;;;;;;;;5038405;28;20107;-64
2022/03/11 00:09:06;;;;;;;15.77;9.77;;;;;;;;;;5037537;28;20032;-65
2022/03/11 00:11:32;;;;;;;13.65;9.43;;;;;;;;;;5039471;28;20037;-64
2022/03/11 00:13:58;;;;;;;16.65;9.38;;;;;;;;;;5037504;28;20506;-65
2022/03/11 00:16:23;;;;;;;13.60;9.10;;;;;;;;;;5044299;28;20040;-65
2022/03/11 00:18:50;;;;;;;9.77;8.77;;;;;;;;;;5037827;28;20490;-65
2022/03/11 00:21:15;;;;;;;12.50;8.20;;;;;;;;;;5037941;28;20029;-64
2022/03/11 00:23:42;;;;;;;13.77;8.85;;;;;;;;;;5035602;28;20044;-64
2022/03/11 00:26:11;;;;;;;10.40;8.20;;;;;;;;;;5036860;28;20087;-64
2022/03/11 00:28:37;;;;;;;10.98;9.65;;;;;;;;;;5034772;28;20566;-64
2022/03/11 00:31:04;;;;;;;10.93;8.48;;;;;;;;;;5038280;28;20490;-64
2022/03/11 00:33:31;;;;;;;13.43;7.90;;;;;;;;;;5036875;28;20033;-65
2022/03/11 00:35:56;;;;;;;10.02;7.85;;;;;;;;;;5037018;28;20120;-64
2022/03/11 00:38:22;;;;;;;9.82;8.35;;;;;;;;;;5036573;28;20116;-65
2022/03/11 00:40:51;;;;;;;12.82;8.27;;;;;;;;;;5032136;28;20462;-65
2022/03/11 00:43:17;;;;;;;12.32;8.45;;;;;;;;;;5035065;28;20414;-65
2022/03/11 00:45:44;;;;;;;11.77;8.75;;;;;;;;;;5029604;28;20021;-65
2022/03/11 00:48:10;;;;;;;15.27;9.25;;;;;;;;;;5039547;28;20044;-64
2022/03/11 00:50:35;;;;;;;15.98;9.75;;;;;;;;;;5036501;28;20025;-64
2022/03/11 00:53:02;;;;;;;13.50;9.30;;;;;;;;;;5033049;28;20133;-64
2022/03/11 00:55:28;;;;;;;18.52;10.15;;;;;;;;;;5036543;28;20028;-65
2022/03/11 00:57:53;;;;;;;17.08;10.20;;;;;;;;;;5034400;28;20041;-65
2022/03/11 01:00:19;;;;;;;14.77;9.93;;;;;;;;;;5041720;28;20029;-64
2022/03/11 01:02:45;;;;;;;13.20;10.00;;;;;;;;;;5031885;28;20026;-65
2022/03/11 01:05:11;;;;;;;14.13;10.43;;;;;;;;;;5035384;28;20044;-64
2022/03/11 01:07:38;;;;;;;17.25;10.35;;;;;;;;;;5034444;28;20075;-65
2022/03/11 01:10:06;;;;;;;21.73;10.45;;;;;;;;;;5036243;28;20034;-65
2022/03/11 01:12:32;;;;;;;15.65;10.50;;;;;;;;;;5042551;28;20029;-64
2022/03/11 01:14:58;;;;;;;16.20;10.93;;;;;;;;;;5040946;28;21394;-64
2022/03/11 01:17:23;;;;;;;17.85;9.52;;;;;;;;;;5043258;28;20025;-64
2022/03/11 01:19:49;;;;;;;16.65;10.70;;;;;;;;;;5037462;28;20025;-64
2022/03/11 01:22:15;;;;;;;13.60;9.55;;;;;;;;;;5039931;28;20546;-65
2022/03/11 01:24:41;;;;;;;14.68;9.40;;;;;;;;;;5034494;28;20036;-64
2022/03/11 01:27:06;;;;;;;16.95;9.63;;;;;;;;;;5039632;28;20037;-65
2022/03/11 01:29:32;;;;;;;15.82;9.02;;;;;;;;;;5039302;28;20033;-65
2022/03/11 01:31:58;;;;;;;13.15;9.38;;;;;;;;;;5042504;28;20949;-64
2022/03/11 01:34:23;;;;;;;14.75;9.63;;;;;;;;;;5043442;28;20032;-65
2022/03/11 01:36:49;;;;;;;10.38;9.23;;;;;;;;;;5039591;28;20032;-65
2022/03/11 01:39:15;;;;;;;13.48;9.68;;;;;;;;;;5042117;28;20140;-64
2022/03/11 01:41:41;;;;;;;12.25;9.25;;;;;;;;;;5039025;28;20152;-64
2022/03/11 01:44:08;;;;;;;14.98;9.70;;;;;;;;;;5038875;28;20051;-65
2022/03/11 01:46:35;;;;;;;19.65;10.68;;;;;;;;;;5040420;28;20029;-64
2022/03/11 01:49:03;;;;;;;14.40;9.57;;;;;;;;;;5033745;28;20025;-64
2022/03/11 01:51:31;;;;;;;15.10;9.77;;;;;;;;;;5036702;28;20135;-65
2022/03/11 01:53:57;;;;;;;15.05;9.85;;;;;;;;;;5040583;28;20036;-65
2022/03/11 01:56:23;;;;;;;13.82;9.90;;;;;;;;;;5038534;28;20026;-65
2022/03/11 01:58:51;;;;;;;15.02;9.93;;;;;;;;;;5044239;28;20041;-65
2022/03/11 02:01:18;;;;;;;18.88;9.88;;;;;;;;;;5040459;28;20052;-64
2022/03/11 02:03:44;;;;;;;16.70;9.52;;;;;;;;;;5042282;28;20037;-65
2022/03/11 02:06:13;;;;;;;13.27;9.60;;;;;;;;;;5039764;28;20120;-64
2022/03/11 02:08:39;;;;;;;13.70;9.00;;;;;;;;;;5034800;28;20175;-64
2022/03/11 02:11:06;;;;;;;14.25;9.18;;;;;;;;;;5037208;28;20035;-64
2022/03/11 02:13:50;;;;;;;9.05;8.15;;;;;;;;;;5041791;28;20115;-65
2022/03/11 02:16:21;;;;;;;10.63;8.27;;;;;;;;;;5041377;28;20036;-64
2022/03/11 02:18:47;;;;;;;13.35;7.80;;;;;;;;;;5040289;28;20042;-65
2022/03/11 02:21:14;;;;;;;10.02;7.32;;;;;;;;;;5038495;28;20029;-64
2022/03/11 02:23:46;;;;;;;12.00;8.40;;;;;;;;;;5042511;28;20101;-65
2022/03/11 02:26:17;;;;;;;9.20;8.10;;;;;;;;;;5036310;28;20153;-65
2022/03/11 02:28:43;;;;;;;11.90;8.52;;;;;;;;;;5033743;28;20036;-65
2022/03/11 02:31:11;;;;;;;10.55;7.85;;;;;;;;;;5046107;28;20049;-64
2022/03/11 02:33:37;;;;;;;8.90;8.10;;;;;;;;;;5039315;28;20099;-65
2022/03/11 02:36:03;;;;;;;8.57;7.35;;;;;;;;;;5036644;28;20406;-65
2022/03/11 02:38:29;;;;;;;12.88;8.50;;;;;;;;;;5041905;28;20494;-64
2022/03/11 02:40:55;;;;;;;10.13;8.40;;;;;;;;;;5041858;28;20032;-65
2022/03/11 02:43:22;;;;;;;10.00;7.72;;;;;;;;;;5036399;28;20428;-65
2022/03/11 02:45:47;;;;;;;9.85;7.88;;;;;;;;;;5040790;28;20032;-61
2022/03/11 02:48:13;;;;;;;9.07;8.13;;;;;;;;;;5040397;28;20661;-64
2022/03/11 02:50:39;;;;;;;12.20;8.20;;;;;;;;;;5042046;28;20028;-64
2022/03/11 02:53:05;;;;;;;9.85;7.85;;;;;;;;;;5041040;28;20037;-65
2022/03/11 02:55:31;;;;;;;11.45;8.52;;;;;;;;;;5037988;28;20056;-64
2022/03/11 02:57:57;;;;;;;9.98;8.20;;;;;;;;;;5042012;28;20033;-65
2022/03/11 03:00:23;;;;;;;8.30;7.20;;;;;;;;;;5037016;28;20014;-65
2022/03/11 03:02:48;;;;;;;11.25;8.18;;;;;;;;;;5041468;28;20102;-64
2022/03/11 03:05:15;;;;;;;10.60;8.38;;;;;;;;;;5041451;28;20433;-64
2022/03/11 03:07:41;;;;;;;9.50;7.85;;;;;;;;;;5039286;28;20102;-65
2022/03/11 03:10:08;;;;;;;10.77;8.00;;;;;;;;;;5040409;28;20059;-65
2022/03/11 03:12:34;;;;;;;11.45;8.45;;;;;;;;;;5039968;28;20029;-64
2022/03/11 03:15:00;;;;;;;18.13;8.32;;;;;;;;;;5034329;28;20030;-64
2022/03/11 03:17:26;;;;;;;10.38;8.00;;;;;;;;;;5038460;28;20171;-64
2022/03/11 03:19:52;;;;;;;12.65;8.32;;;;;;;;;;5037771;28;20499;-64
2022/03/11 03:22:17;;;;;;;10.48;7.65;;;;;;;;;;5039394;28;20068;-64
2022/03/11 03:24:43;;;;;;;8.98;7.57;;;;;;;;;;5040198;28;20060;-64
2022/03/11 03:27:10;;;;;;;9.30;7.90;;;;;;;;;;5036859;28;20077;-64
2022/03/11 03:29:36;;;;;;;9.90;7.90;;;;;;;;;;5045909;28;20036;-65
2022/03/11 03:32:02;;;;;;;9.40;7.55;;;;;;;;;;5031023;28;20049;-64
2022/03/11 03:34:30;;;;;;;10.35;8.00;;;;;;;;;;5040142;28;20061;-63
2022/03/11 03:37:00;;;;;;;9.00;7.55;;;;;;;;;;5038557;28;20025;-64
2022/03/11 03:39:27;;;;;;;13.10;8.02;;;;;;;;;;5039142;28;20041;-64
2022/03/11 03:41:54;;;;;;;7.97;7.18;;;;;;;;;;5040540;28;20028;-65
2022/03/11 03:44:20;;;;;;;10.73;7.35;;;;;;;;;;5037783;28;20057;-64
2022/03/11 03:46:46;;;;;;;9.02;7.57;;;;;;;;;;5034546;28;20402;-64
2022/03/11 03:49:12;;;;;;;10.68;7.85;;;;;;;;;;5040674;28;20029;-65
2022/03/11 03:51:38;;;;;;;9.27;7.43;;;;;;;;;;5036285;28;20406;-64
2022/03/11 03:54:05;;;;;;;13.50;7.93;;;;;;;;;;5037407;28;20034;-64
2022/03/11 03:56:30;;;;;;;7.85;7.00;;;;;;;;;;5041024;28;20405;-65
2022/03/11 03:58:56;;;;;;;9.38;7.20;;;;;;;;;;5036827;28;20033;-65
2022/03/11 04:01:22;;;;;;;8.23;7.38;;;;;;;;;;5032062;28;20034;-65
2022/03/11 04:03:47;;;;;;;10.93;8.10;;;;;;;;;;5036943;28;20057;-65
2022/03/11 04:06:13;;;;;;;8.15;7.32;;;;;;;;;;5035243;28;20033;-65
2022/03/11 04:08:39;;;;;;;10.45;7.20;;;;;;;;;;5035523;28;20112;-64
2022/03/11 04:11:05;;;;;;;10.25;7.15;;;;;;;;;;5038404;28;20040;-65
2022/03/11 04:13:31;;;;;;;8.93;7.78;;;;;;;;;;5035387;28;20029;-65
2022/03/11 04:15:58;;;;;;;8.85;7.53;;;;;;;;;;5037490;28;20043;-65
2022/03/11 04:18:24;;;;;;;10.02;7.32;;;;;;;;;;5037343;28;20042;-65
2022/03/11 04:20:50;;;;;;;8.82;6.93;;;;;;;;;;5035750;28;20464;-65
2022/03/11 04:23:15;;;;;;;10.38;7.70;;;;;;;;;;5041664;28;20037;-64
2022/03/11 04:25:41;;;;;;;7.72;6.85;;;;;;;;;;5035219;28;20041;-65
2022/03/11 04:28:07;;;;;;;8.48;6.75;;;;;;;;;;5045661;28;20029;-65
2022/03/11 04:30:33;;;;;;;8.55;6.88;;;;;;;;;;5035723;28;20029;-65
2022/03/11 04:32:58;;;;;;;6.97;6.32;;;;;;;;;;5033284;28;20245;-65
2022/03/11 04:35:24;;;;;;;9.55;6.93;;;;;;;;;;5040566;28;20036;-65
2022/03/11 04:37:50;;;;;;;11.10;7.07;;;;;;;;;;5035596;28;20036;-63
2022/03/11 04:40:16;;;;;;;8.20;6.93;;;;;;;;;;5043629;28;20053;-64
2022/03/11 04:42:41;;;;;;;8.38;6.55;;;;;;;;;;5039190;28;20669;-64
2022/03/11 04:45:07;;;;;;;8.20;7.40;;;;;;;;;;5034926;28;20052;-65
2022/03/11 04:47:33;;;;;;;8.65;6.90;;;;;;;;;;5034774;28;20077;-65
2022/03/11 04:49:59;;;;;;;8.70;7.00;;;;;;;;;;5038355;28;20045;-64
2022/03/11 04:52:24;;;;;;;11.00;7.18;;;;;;;;;;5032759;28;20038;-65
2022/03/11 04:54:50;;;;;;;10.20;6.80;;;;;;;;;;5033057;28;20029;-65
2022/03/11 04:57:16;;;;;;;9.52;7.28;;;;;;;;;;5034522;28;20500;-64
2022/03/11 04:59:42;;;;;;;9.02;7.28;;;;;;;;;;5039065;28;20037;-65
2022/03/11 05:02:08;;;;;;;9.25;6.93;;;;;;;;;;5036376;28;20055;-65
2022/03/11 05:04:34;;;;;;;8.00;7.20;;;;;;;;;;5039785;28;20116;-64
2022/03/11 05:06:59;;;;;;;8.57;7.03;;;;;;;;;;5039780;28;20029;-65
2022/03/11 05:09:25;;;;;;;13.57;6.53;;;;;;;;;;5033397;28;20405;-65
2022/03/11 05:11:51;;;;;;;8.45;7.40;;;;;;;;;;5035479;28;20089;-64
2022/03/11 05:14:17;;;;;;;8.40;7.05;;;;;;;;;;5041236;28;20029;-64
2022/03/11 05:16:42;;;;;;;8.40;6.65;;;;;;;;;;5035091;28;20041;-64
2022/03/11 05:19:08;;;;;;;7.70;7.00;;;;;;;;;;5040255;28;20029;-63
2022/03/11 05:21:33;;;;;;;8.85;7.32;;;;;;;;;;5033387;28;20025;-65
2022/03/11 05:23:59;;;;;;;9.75;6.70;;;;;;;;;;5039688;28;21347;-65
2022/03/11 05:26:25;;;;;;;10.95;8.20;;;;;;;;;;5036759;28;20053;-65
2022/03/11 05:28:58;;;;;;;8.70;7.28;;;;;;;;;;5031246;28;20402;-65
2022/03/11 05:31:27;;;;;;;8.43;7.20;;;;;;;;;;5038158;28;20022;-65
2022/03/11 05:33:54;;;;;;;8.73;7.82;;;;;;;;;;5039223;28;20025;-65
2022/03/11 05:36:21;;;;;;;7.93;7.18;;;;;;;;;;5033912;28;20032;-65
2022/03/11 05:38:46;;;;;;;9.35;7.40;;;;;;;;;;5035492;28;20041;-65
2022/03/11 05:41:12;;;;;;;8.65;6.93;;;;;;;;;;5039999;28;20048;-65
2022/03/11 05:43:38;;;;;;;10.30;8.15;;;;;;;;;;5036921;28;20033;-65
2022/03/11 05:46:04;;;;;;;8.93;6.93;;;;;;;;;;5031573;28;20082;-65
2022/03/11 05:48:30;;;;;;;8.27;7.32;;;;;;;;;;5040554;28;20732;-65
2022/03/11 05:50:56;;;;;;;8.90;7.15;;;;;;;;;;5037711;28;20032;-65
2022/03/11 05:53:21;;;;;;;11.90;7.80;;;;;;;;;;5037288;28;20018;-65
2022/03/11 05:55:47;;;;;;;9.27;7.70;;;;;;;;;;5043265;28;20083;-65
2022/03/11 05:58:13;;;;;;;10.18;8.02;;;;;;;;;;5040698;28;20706;-65
2022/03/11 06:00:39;;;;;;;12.60;7.70;;;;;;;;;;5037908;28;20484;-65
2022/03/11 06:03:06;;;;;;;10.10;8.65;;;;;;;;;;5041084;28;20033;-65
2022/03/11 06:05:31;;;;;;;10.77;8.18;;;;;;;;;;5039773;28;20091;-65
2022/03/11 06:07:57;;;;;;;9.95;7.90;;;;;;;;;;5045410;28;20029;-65
2022/03/11 06:10:23;;;;;;;9.95;7.68;;;;;;;;;;5037076;28;20061;-65
2022/03/11 06:12:49;;;;;;;9.05;8.13;;;;;;;;;;5034050;28;20124;-65
2022/03/11 06:15:17;;;;;;;9.88;8.75;;;;;;;;;;5034999;28;20029;-65
2022/03/11 06:17:43;;;;;;;11.40;9.15;;;;;;;;;;5039461;28;20036;-65
2022/03/11 06:20:10;;;;;;;11.95;8.98;;;;;;;;;;5032401;28;20037;-58
2022/03/11 06:22:36;;;;;;;15.38;10.23;;;;;;;;;;5036552;28;20018;-65
2022/03/11 06:25:04;;;;;;;17.95;10.32;;;;;;;;;;5037582;28;20134;-65
2022/03/11 06:27:29;;;;;;;11.32;9.27;;;;;;;;;;5036072;28;20037;-65
2022/03/11 06:29:55;;;;;;;11.90;9.63;;;;;;;;;;5035137;28;20063;-65
2022/03/11 06:32:21;;;;;;;11.43;9.35;;;;;;;;;;5034597;28;20102;-67
2022/03/11 06:34:50;;;;;;;12.85;10.15;;;;;;;;;;5036191;28;20045;-65
2022/03/11 06:37:16;;;;;;;11.13;9.10;;;;;;;;;;5037538;28;20052;-65
2022/03/11 06:39:42;;;;;;;10.40;8.13;;;;;;;;;;5038658;28;20037;-66
2022/03/11 06:42:08;;;;;;;11.45;8.23;;;;;;;;;;5038275;28;20809;-65
2022/03/11 06:44:34;;;;;;;18.75;8.63;;;;;;;;;;5032695;28;20030;-65
2022/03/11 06:47:00;;;;;;;11.50;7.80;;;;;;;;;;5044706;28;20033;-65
2022/03/11 06:49:25;;;;;;;12.07;7.93;;;;;;;;;;5035451;28;20037;-65
2022/03/11 06:51:51;;;;;;;9.82;7.68;;;;;;;;;;5038122;28;20022;-64
2022/03/11 06:54:17;;;;;;;13.23;8.93;;;;;;;;;;5036513;28;20036;-65
2022/03/11 06:56:42;;;;;;;11.52;8.45;;;;;;;;;;5038823;28;20132;-65
2022/03/11 06:59:08;;;;;;;11.30;8.68;;;;;;;;;;5034518;28;20064;-65
2022/03/11 07:01:34;;;;;;;10.35;8.35;;;;;;;;;;5033542;28;20029;-65
2022/03/11 07:04:01;;;;;;;11.65;7.90;;;;;;;;;;5037520;28;20033;-65
2022/03/11 07:06:27;;;;;;;12.68;8.70;;;;;;;;;;5035384;28;20541;-65
2022/03/11 07:08:53;;;;;;;8.88;7.43;;;;;;;;;;5035703;28;20049;-65
2022/03/11 07:11:19;;;;;;;8.52;7.70;;;;;;;;;;5043320;28;20060;-65
2022/03/11 07:13:44;;;;;;;9.15;7.85;;;;;;;;;;5035334;28;20521;-65
2022/03/11 07:16:10;;;;;;;10.32;8.25;;;;;;;;;;5036916;28;20530;-65
2022/03/11 07:18:36;;;;;;;10.20;8.02;;;;;;;;;;5038024;28;20047;-66
2022/03/11 07:21:02;;;;;;;11.10;7.95;;;;;;;;;;5036624;28;20415;-66
2022/03/11 07:23:29;;;;;;;10.48;7.70;;;;;;;;;;5040819;28;20033;-66
2022/03/11 07:25:55;;;;;;;14.32;8.38;;;;;;;;;;5030993;28;20079;-66
2022/03/11 07:28:20;;;;;;;10.35;7.80;;;;;;;;;;5045407;28;20036;-66
2022/03/11 07:30:47;;;;;;;12.00;7.72;;;;;;;;;;5039628;28;20026;-67
2022/03/11 07:33:12;;;;;;;11.60;7.55;;;;;;;;;;5030100;28;20080;-66
2022/03/11 07:35:39;;;;;;;10.85;7.75;;;;;;;;;;5034332;28;20056;-66
2022/03/11 07:38:05;;;;;;;11.57;8.18;;;;;;;;;;5035316;28;20044;-66
2022/03/11 07:40:31;;;;;;;8.48;7.68;;;;;;;;;;5036093;28;20028;-65
2022/03/11 07:42:57;;;;;;;10.43;7.95;;;;;;;;;;5039628;28;20029;-65
2022/03/11 07:45:22;;;;;;;8.27;7.47;;;;;;;;;;5040404;28;20041;-66
2022/03/11 07:47:48;;;;;;;8.70;7.90;;;;;;;;;;5037927;28;20036;-66
2022/03/11 07:50:14;;;;;;;9.73;8.10;;;;;;;;;;5038124;28;20036;-67
2022/03/11 07:52:40;;;;;;;9.57;8.38;;;;;;;;;;5035641;28;20029;-67
2022/03/11 07:55:08;;;;;;;11.00;7.78;;;;;;;;;;5039491;28;20037;-67
2022/03/11 07:57:36;;;;;;;9.15;7.95;;;;;;;;;;5033720;28;20071;-67
2022/03/11 08:00:08;;;;;;;20.08;8.27;;;;;;;;;;5036543;28;20474;-67
2022/03/11 08:02:34;;;;;;;;;;;;;;;;;;5035798;28;20032;-66
2022/03/11 08:05:00;;;;;;;12.45;7.65;;;;;;;;;;5034579;28;20298;-67
2022/03/11 08:07:26;;;;;;;10.57;8.32;;;;;;;;;;5037329;28;20110;-67
2022/03/11 08:09:52;;;;;;;10.82;7.47;;;;;;;;;;5036672;28;20033;-66
2022/03/11 08:12:19;;;;;;;13.60;7.57;;;;;;;;;;5036776;28;20029;-67
2022/03/11 08:14:46;;;;;;;15.90;8.82;;;;;;;;;;5037118;28;20549;-67
2022/03/11 08:17:11;;;;;;;12.60;7.82;;;;;;;;;;5036680;28;20386;-66
2022/03/11 08:19:37;;;;;;;16.67;7.75;;;;;;;;;;5034735;28;20044;-67
2022/03/11 08:22:03;;;;;;;8.68;7.78;;;;;;;;;;5038163;28;20119;-66
2022/03/11 08:24:29;;;;;;;8.90;7.65;;;;;;;;;;5038942;28;20032;-65
2022/03/11 08:26:55;;;;;;;11.68;8.35;;;;;;;;;;5035881;28;20041;-67
2022/03/11 08:29:21;;;;;;;12.13;8.68;;;;;;;;;;5039653;28;20028;-66
2022/03/11 08:31:47;;;;;;;12.10;8.27;;;;;;;;;;5036341;28;20037;-66
2022/03/11 08:34:13;;;;;;;12.05;8.98;;;;;;;;;;5039600;28;20079;-66
2022/03/11 08:36:39;;;;;;;11.18;8.73;;;;;;;;;;5041559;28;20036;-65
2022/03/11 08:39:06;;;;;;;13.32;8.48;;;;;;;;;;5029662;28;20029;-65
2022/03/11 08:41:32;;;;;;;10.90;8.40;;;;;;;;;;5034802;28;20170;-65
2022/03/11 08:44:00;;;;;;;12.75;7.88;;;;;;;;;;5034185;28;20188;-66
2022/03/11 08:46:29;;;;;;;13.35;7.35;;;;;;;;;;5037507;28;20040;-66
2022/03/11 08:48:55;;;;;;;8.38;6.05;;;;;;;;;;5033138;28;20038;-65
2022/03/11 08:51:20;;;;;;;8.43;6.80;;;;;;;;;;5032462;28;20075;-65
2022/03/11 08:53:48;;;;;;;11.25;6.90;;;;;;;;;;5031446;28;20033;-65
2022/03/11 08:56:15;;;;;;;7.40;6.07;;;;;;;;;;5031076;28;20064;-66
2022/03/11 08:58:41;;;;;;;10.13;6.18;;;;;;;;;;5037045;28;21067;-65
2022/03/11 09:01:07;;;;;;;6.72;6.13;;;;;;;;;;5034268;28;20052;-66
2022/03/11 09:03:32;;;;;;;8.63;5.72;;;;;;;;;;5032575;28;20033;-65
2022/03/11 09:05:58;;;;;;;8.75;6.50;;;;;;;;;;5032860;28;20029;-66
2022/03/11 09:08:24;;;;;;;10.35;6.20;;;;;;;;;;5034519;28;20377;-65
2022/03/11 09:10:50;;;;;;;12.57;6.78;;;;;;;;;;5031651;28;20104;-65
2022/03/11 09:13:16;;;;;;;8.75;5.93;;;;;;;;;;5037559;28;20034;-66
2022/03/11 09:15:42;;;;;;;14.10;6.45;;;;;;;;;;5035862;28;20033;-66
2022/03/11 09:18:08;;;;;;;9.35;6.55;;;;;;;;;;5030982;28;20029;-66
2022/03/11 09:20:34;;;;;;;9.15;6.53;;;;;;;;;;5036083;28;20029;-65
2022/03/11 09:23:02;;;;;;;8.57;6.60;;;;;;;;;;5035151;28;20018;-65
2022/03/11 09:25:28;;;;;;;16.52;7.15;;;;;;;;;;5036406;28;20202;-66
2022/03/11 09:27:54;;;;;;;7.32;6.40;;;;;;;;;;5032911;28;20112;-66
2022/03/11 09:30:19;;;;;;;9.82;6.90;;;;;;;;;;5037958;28;20037;-66
2022/03/11 09:32:45;;;;;;;9.75;6.93;;;;;;;;;;5036090;28;20112;-65
2022/03/11 09:35:12;;;;;;;9.13;7.00;;;;;;;;;;5042229;28;20486;-65
2022/03/11 09:37:38;;;;;;;11.20;6.93;;;;;;;;;;5042994;28;20538;-66
2022/03/11 09:40:05;;;;;;;14.07;6.55;;;;;;;;;;5037623;28;20031;-66
2022/03/11 09:42:31;;;;;;;15.43;7.50;;;;;;;;;;5037312;28;20025;-65
2022/03/11 09:44:58;;;;;;;11.35;7.40;;;;;;;;;;5035854;28;20626;-66
2022/03/11 09:47:24;;;;;;;9.50;6.95;;;;;;;;;;5038990;28;20029;-66
2022/03/11 09:49:51;;;;;;;10.98;6.55;;;;;;;;;;5035954;28;20536;-65
2022/03/11 09:52:19;;;;;;;11.48;6.97;;;;;;;;;;5037276;28;20029;-66
2022/03/11 09:54:45;;;;;;;21.75;7.07;;;;;;;;;;5036919;28;20030;-66
2022/03/11 09:57:23;;;;;;;15.48;6.47;;;;;;;;;;5043649;28;20091;-65
2022/03/11 09:59:50;;;;;;;7.65;6.55;;;;;;;;;;5040432;28;20025;-66
2022/03/11 10:02:17;;;;;;;7.95;6.53;;;;;;;;;;5039972;28;20724;-66
2022/03/11 10:04:54;;;;;;;16.77;7.68;;;;;;;;;;5031434;28;20037;-65
2022/03/11 10:07:31;;;;;;;9.93;6.60;;;;;;;;;;5038029;28;20037;-66
2022/03/11 10:10:09;;;;;;;15.73;6.93;;;;;;;;;;5037832;28;20141;-65
2022/03/11 10:12:42;;;;;;;16.17;6.25;;;;;;;;;;5036165;28;20034;-65
2022/03/11 10:15:08;;;;;;;18.50;6.70;;;;;;;;;;5036538;28;20032;-65
2022/03/11 10:17:43;;;;;;;65.45;7.93;;;;;;;;;;5033692;28;20037;-66
2022/03/11 10:20:10;;;;;;;8.27;6.28;;;;;;;;;;5039673;28;20127;-65
2022/03/11 10:22:37;;;;;;;8.38;6.25;;;;;;;;;;5042463;28;20070;-65
2022/03/11 10:25:09;;;;;;;17.80;6.55;;;;;;;;;;5030575;28;20038;-65
2022/03/11 10:28:11;;;;;;;7.50;6.05;;;;;;;;;;5043718;28;20037;-65
2022/03/11 10:30:40;;;;;;;11.02;6.35;;;;;;;;;;5040338;28;20041;-65
2022/03/11 10:33:11;;;;;;;12.45;7.00;;;;;;;;;;5040106;28;20040;-65
2022/03/11 10:35:42;;;;;;;12.32;6.75;;;;;;;;;;5035800;28;20040;-65
2022/03/11 10:38:14;;;;;;;12.10;7.07;;;;;;;;;;5042131;28;20688;-65
2022/03/11 10:40:42;;;;;;;10.13;6.17;;;;;;;;;;5035277;28;20036;-65
2022/03/11 10:43:13;;;;;;;19.15;6.93;;;;;;;;;;5029841;28;20281;-66
2022/03/11 10:45:50;;;;;;;17.88;6.55;;;;;;;;;;5039568;28;20072;-65
2022/03/11 10:48:18;;;;;;;8.52;6.03;;;;;;;;;;5038601;28;20040;-66
2022/03/11 10:50:44;;;;;;;11.27;6.40;;;;;;;;;;5033622;28;20033;-65
2022/03/11 10:53:12;;;;;;;7.30;5.07;;;;;;;;;;5039204;28;20042;-65
2022/03/11 10:55:41;;;;;;;18.55;4.68;;;;;;;;;;5036677;28;20525;-65
2022/03/11 10:58:08;;;;;;;26.65;4.45;;;;;;;;;;5040675;28;20043;-65
2022/03/11 11:00:36;;;;;;;8.85;3.97;;;;;;;;;;5033512;28;20026;-66
2022/03/11 11:03:04;;;;;;;7.50;3.85;;;;;;;;;;5040340;28;20021;-65
2022/03/11 11:05:31;;;;;;;8.23;3.97;;;;;;;;;;5038931;28;20402;-64
2022/03/11 11:07:58;;;;;;;8.27;4.20;;;;;;;;;;5036505;28;20044;-65
2022/03/11 11:10:27;;;;;;;5.78;4.00;;;;;;;;;;5039185;28;20755;-65
2022/03/11 11:12:53;;;;;;;7.13;4.13;;;;;;;;;;5036076;28;20064;-66
2022/03/11 11:15:20;;;;;;;8.15;4.40;;;;;;;;;;5039318;28;20105;-65
2022/03/11 11:17:52;;;;;;;8.93;4.10;;;;;;;;;;5031672;28;20033;-65
2022/03/11 11:20:31;;;;;;;10.48;4.00;;;;;;;;;;5040666;28;20112;-65
2022/03/11 11:23:01;;;;;;;12.43;4.50;;;;;;;;;;5030536;28;20040;-65
2022/03/11 11:25:27;;;;;;;4.35;3.55;;;;;;;;;;5034597;28;20134;-65
2022/03/11 11:27:57;;;;;;;6.65;3.60;;;;;;;;;;5039887;28;20115;-65
2022/03/11 11:30:24;;;;;;;4.80;3.70;;;;;;;;;;5035628;28;20492;-65
2022/03/11 11:32:55;;;;;;;4.20;3.80;;;;;;;;;;5034501;28;20037;-65
2022/03/11 11:35:35;;;;;;;4.55;3.30;;;;;;;;;;5031654;28;20037;-65
2022/03/11 11:38:04;;;;;;;8.68;3.78;;;;;;;;;;5030535;28;20428;-66
2022/03/11 11:40:34;;;;;;;6.88;3.65;;;;;;;;;;5036174;28;20071;-65
2022/03/11 11:43:25;;;;;;;6.22;3.80;;;;;;;;;;5034257;28;21024;-65
2022/03/11 11:46:01;;;;;;;17.30;4.07;;;;;;;;;;5034261;28;21961;-64
2022/03/11 11:51:31;;;;;;;7.45;4.00;;;;;;;;;;5034837;28;20048;-65
2022/03/11 11:54:08;;;;;;;6.95;3.55;;;;;;;;;;5028217;28;20049;-64
2022/03/11 11:56:43;;;;;;;6.47;3.28;;;;;;;;;;5036459;28;20025;-64
2022/03/11 11:59:19;;;;;;;10.43;4.95;;;;;;;;;;5037075;28;20048;-62
2022/03/11 12:01:49;;;;;;;5.88;3.75;;;;;;;;;;5030998;28;20465;-64
2022/03/11 12:04:28;;;;;;;3.80;3.35;;;;;;;;;;5036671;28;20037;-65
2022/03/11 12:07:04;;;;;;;8.77;3.30;;;;;;;;;;5036662;28;20079;-65
2022/03/11 12:12:08;;;;;;;7.10;3.83;;;;;;;;;;5035560;28;20434;-65
2022/03/11 12:15:04;;;;;;;12.25;3.45;;;;;;;;;;5031922;28;20025;-65
2022/03/11 12:17:39;;;;;;;11.48;3.90;;;;;;;;;;5038775;28;20068;-65
2022/03/11 12:20:36;;;;;;;9.45;3.72;;;;;;;;;;5037845;28;20025;-64
2022/03/11 12:23:16;;;;;;;8.98;4.00;;;;;;;;;;5017526;28;20118;-65
2022/03/11 12:26:01;;;;;;;9.43;3.65;;;;;;;;;;5017829;28;20508;-65
2022/03/11 12:28:33;;;;;;;6.03;3.78;;;;;;;;;;5020456;28;20149;-65
2022/03/11 12:31:09;;;;;;;7.13;3.75;;;;;;;;;;5020551;28;20045;-65
2022/03/11 12:33:39;;;;;;;9.55;4.10;;;;;;;;;;5019488;28;20037;-65
2022/03/11 12:36:09;;;;;;;10.13;4.05;;;;;;;;;;5018464;28;20029;-65
2022/03/11 12:38:38;;;;;;;5.32;4.20;;;;;;;;;;5019408;28;20041;-65
2022/03/11 12:41:10;;;;;;;5.75;3.65;;;;;;;;;;5019635;28;20040;-64
2022/03/11 12:43:37;;;;;;;9.85;4.00;;;;;;;;;;5018773;28;20470;-65
2022/03/11 12:46:04;;;;;;;5.97;4.05;;;;;;;;;;5021676;28;20044;-65
2022/03/11 12:48:36;;;;;;;4.22;3.47;;;;;;;;;;5022195;28;20061;-63
2022/03/11 12:51:04;;;;;;;4.22;3.83;;;;;;;;;;5019585;28;20030;-65
2022/03/11 12:53:29;;;;;;;6.80;3.80;;;;;;;;;;5017691;28;20045;-64
2022/03/11 12:55:56;;;;;;;8.25;4.07;;;;;;;;;;5015243;28;20216;-64
2022/03/11 12:58:27;;;;;;;9.55;4.07;;;;;;;;;;5019811;28;20034;-64
2022/03/11 13:00:54;;;;;;;4.68;3.65;;;;;;;;;;5035676;28;20166;-64
2022/03/11 13:03:33;;;;;;;6.43;3.60;;;;;;;;;;5036691;28;20672;-64
2022/03/11 13:06:07;;;;;;;5.63;3.65;;;;;;;;;;5029395;28;20428;-65
2022/03/11 13:08:33;;;;;;;3.97;3.58;;;;;;;;;;5028954;28;20029;-65
2022/03/11 13:11:02;;;;;;;9.13;4.13;;;;;;;;;;5028742;28;20423;-65
2022/03/11 13:13:29;;;;;;;6.20;3.25;;;;;;;;;;5036756;28;20033;-65
2022/03/11 13:15:57;;;;;;;7.43;3.42;;;;;;;;;;5035932;28;20056;-65
2022/03/11 13:18:37;;;;;;;6.93;3.65;;;;;;;;;;5035117;28;20529;-65
2022/03/11 13:21:07;;;;;;;3.70;3.40;;;;;;;;;;5034938;28;20074;-65
2022/03/11 13:23:38;;;;;;;4.70;3.22;;;;;;;;;;5033170;28;20029;-65
2022/03/11 13:26:09;;;;;;;5.13;3.30;;;;;;;;;;5030190;28;20069;-64
2022/03/11 13:28:45;;;;;;;4.80;3.60;;;;;;;;;;5037846;28;20021;-65
2022/03/11 13:31:15;;;;;;;4.32;3.10;;;;;;;;;;5031794;28;20490;-64
2022/03/11 13:33:43;;;;;;;10.52;3.53;;;;;;;;;;5036066;28;20057;-65
2022/03/11 13:36:12;;;;;;;9.13;3.60;;;;;;;;;;5034727;28;20040;-65
2022/03/11 13:38:57;;;;;;;6.78;3.60;;;;;;;;;;5031157;28;20037;-65
2022/03/11 13:41:30;;;;;;;5.53;3.55;;;;;;;;;;5035239;28;20025;-65
2022/03/11 13:44:01;;;;;;;7.72;3.92;;;;;;;;;;5036543;28;20040;-65
2022/03/11 13:46:29;;;;;;;5.80;3.88;;;;;;;;;;5031845;28;20034;-65
2022/03/11 13:49:00;;;;;;;7.18;3.70;;;;;;;;;;5036578;28;20025;-65
2022/03/11 13:51:58;;;;;;;7.22;3.08;;;;;;;;;;5040003;28;20032;-65
2022/03/11 13:54:34;;;;;;;9.07;3.53;;;;;;;;;;5020382;28;20034;-65
2022/03/11 13:57:16;;;;;;;4.05;3.33;;;;;;;;;;5022038;28;20129;-65
2022/03/11 13:59:42;;;;;;;;;;;;;;;;;;5021450;28;20079;-65
2022/03/11 14:02:19;;;;;;;5.53;3.58;;;;;;;;;;5021649;28;19917;-65
2022/03/11 14:04:46;;;;;;;6.32;3.58;;;;;;;;;;5018253;28;20072;-64
2022/03/11 14:07:24;;;;;;;5.25;3.30;;;;;;;;;;5018482;28;20029;-65
2022/03/11 14:09:54;;;;;;;6.00;3.50;;;;;;;;;;5021086;28;20034;-62
2022/03/11 14:12:26;;;;;;;5.25;3.30;;;;;;;;;;5023572;28;20044;-64
2022/03/11 14:14:51;;;;;;;5.97;4.00;;;;;;;;;;5020168;28;20091;-64
2022/03/11 14:17:29;;;;;;;7.55;3.20;;;;;;;;;;5023418;28;20043;-64
2022/03/11 14:19:54;;;;;;;5.13;3.85;;;;;;;;;;5025770;28;20041;-64
2022/03/11 14:22:20;;;;;;;8.20;3.67;;;;;;;;;;5027488;28;20221;-64
2022/03/11 14:24:46;;;;;;;4.78;3.45;;;;;;;;;;5025857;28;20455;-64
2022/03/11 14:27:16;;;;;;;5.88;3.15;;;;;;;;;;5026124;28;20033;-64
2022/03/11 14:29:42;;;;;;;8.40;3.20;;;;;;;;;;5028252;28;20071;-65
2022/03/11 14:32:07;;;;;;;7.90;3.08;;;;;;;;;;5036889;28;20537;-65
2022/03/11 14:34:33;;;;;;;3.33;2.90;;;;;;;;;;5040033;28;20037;-65
2022/03/11 14:37:03;;;;;;;4.07;2.97;;;;;;;;;;5037633;28;20048;-65
2022/03/11 14:39:32;;;;;;;4.07;3.03;;;;;;;;;;5036893;28;20178;-65
2022/03/11 14:41:59;;;;;;;16.33;3.83;;;;;;;;;;5040222;28;20044;-64
2022/03/11 14:44:25;;;;;;;3.22;2.85;;;;;;;;;;5034282;28;20053;-64
2022/03/11 14:46:52;;;;;;;7.60;2.88;;;;;;;;;;5040550;28;20056;-65